Time;durP1;ratioP1;P1;durP2;ratioP2;P2;SDS_P1;SDS_P2;PMS_P1;PMS_P2;Temp;Humidity;BMP_temperature;BMP_pressure;BME280_temperature;BME280_humidity;BME280_pressure;Samples;Min_cycle;Max_cycle;Signal;HPM_P1;HPM_P2
2022/11/16 00:00:32;;;;;;;0.65;0.65;;;;;;;;;;5091968;28;20093;-76
2022/11/16 00:03:00;;;;;;;0.20;0.20;;;;;;;;;;5090014;28;20665;-76
2022/11/16 00:05:26;;;;;;;0.45;0.45;;;;;;;;;;5091910;28;20031;-77
2022/11/16 00:07:52;;;;;;;0.10;0.10;;;;;;;;;;5091808;28;20036;-75
2022/11/16 00:10:18;;;;;;;2.42;0.75;;;;;;;;;;5091296;28;20077;-77
2022/11/16 00:12:44;;;;;;;1.42;0.80;;;;;;;;;;5090918;28;20478;-74
2022/11/16 00:15:09;;;;;;;2.33;1.50;;;;;;;;;;5091276;28;20579;-76
2022/11/16 00:17:35;;;;;;;1.00;0.47;;;;;;;;;;5091242;28;20032;-74
2022/11/16 00:20:01;;;;;;;0.40;0.40;;;;;;;;;;5091589;28;20973;-74
2022/11/16 00:22:27;;;;;;;1.85;1.75;;;;;;;;;;5090984;28;20387;-81
2022/11/16 00:24:53;;;;;;;5.53;1.60;;;;;;;;;;5090801;28;20040;-73
2022/11/16 00:27:18;;;;;;;0.30;0.30;;;;;;;;;;5093348;28;20440;-72
2022/11/16 00:29:44;;;;;;;2.75;1.48;;;;;;;;;;5094782;28;20031;-74
2022/11/16 00:32:11;;;;;;;1.38;1.05;;;;;;;;;;5094690;28;20510;-73
2022/11/16 00:34:38;;;;;;;0.20;0.20;;;;;;;;;;5094836;28;20044;-73
2022/11/16 00:37:04;;;;;;;0.10;0.10;;;;;;;;;;5093114;28;20157;-73
2022/11/16 00:39:30;;;;;;;0.15;0.15;;;;;;;;;;5094422;28;20115;-74
2022/11/16 00:41:56;;;;;;;0.10;0.10;;;;;;;;;;5092846;28;20032;-73
2022/11/16 00:44:22;;;;;;;0.15;0.15;;;;;;;;;;5094629;28;20024;-73
2022/11/16 00:46:48;;;;;;;0.17;0.17;;;;;;;;;;5094298;28;20034;-74
2022/11/16 00:49:14;;;;;;;0.10;0.10;;;;;;;;;;5094198;28;20028;-74
2022/11/16 00:51:40;;;;;;;0.10;0.10;;;;;;;;;;5093116;28;20039;-75
2022/11/16 00:54:07;;;;;;;0.10;0.10;;;;;;;;;;5093151;28;20032;-75
2022/11/16 00:56:35;;;;;;;0.20;0.20;;;;;;;;;;5092468;28;20036;-75
2022/11/16 00:59:03;;;;;;;0.10;0.10;;;;;;;;;;5092903;28;20028;-75
2022/11/16 01:01:30;;;;;;;0.10;0.10;;;;;;;;;;5101022;28;20043;-74
2022/11/16 01:03:56;;;;;;;0.10;0.10;;;;;;;;;;5093634;28;20028;-74
2022/11/16 01:06:22;;;;;;;0.15;0.15;;;;;;;;;;5094057;28;20012;-75
2022/11/16 01:08:49;;;;;;;0.30;0.30;;;;;;;;;;5092551;28;20026;-74
2022/11/16 01:14:01;;;;;;;0.10;0.10;;;;;;;;;;5094136;28;20024;-74
2022/11/16 01:16:27;;;;;;;0.20;0.20;;;;;;;;;;5094126;28;20028;-73
2022/11/16 01:18:54;;;;;;;0.20;0.20;;;;;;;;;;5092129;28;20032;-73
2022/11/16 01:21:20;;;;;;;0.30;0.30;;;;;;;;;;5092462;28;20020;-74
2022/11/16 01:23:47;;;;;;;0.28;0.28;;;;;;;;;;5092309;28;20115;-73
2022/11/16 01:26:13;;;;;;;0.20;0.20;;;;;;;;;;5092603;28;20024;-73
2022/11/16 01:28:40;;;;;;;0.10;0.10;;;;;;;;;;5092531;28;20086;-73
2022/11/16 01:31:07;;;;;;;0.10;0.10;;;;;;;;;;5092612;28;20028;-73
2022/11/16 01:33:35;;;;;;;0.28;0.28;;;;;;;;;;5092141;28;20146;-74
2022/11/16 01:36:08;;;;;;;0.10;0.10;;;;;;;;;;5095902;28;20044;-73
2022/11/16 01:38:34;;;;;;;0.35;0.35;;;;;;;;;;5075672;28;20131;-73
2022/11/16 01:41:01;;;;;;;0.10;0.10;;;;;;;;;;5092309;28;20028;-73
2022/11/16 01:43:30;;;;;;;0.20;0.20;;;;;;;;;;5092251;28;20546;-73
2022/11/16 01:46:01;;;;;;;0.20;0.20;;;;;;;;;;5076089;28;20032;-73
2022/11/16 01:48:29;;;;;;;0.10;0.10;;;;;;;;;;5092345;28;20070;-74
2022/11/16 01:50:56;;;;;;;0.10;0.10;;;;;;;;;;5091878;28;20024;-73
2022/11/16 01:53:23;;;;;;;0.10;0.10;;;;;;;;;;5092244;28;20122;-73
2022/11/16 01:55:52;;;;;;;0.13;0.13;;;;;;;;;;5092091;28;20395;-74
2022/11/16 01:58:24;;;;;;;0.20;0.20;;;;;;;;;;5092004;28;20036;-75
2022/11/16 02:00:56;;;;;;;1.27;1.27;;;;;;;;;;5092071;28;20070;-74
2022/11/16 02:03:42;;;;;;;0.20;0.20;;;;;;;;;;5093221;28;20501;-74
2022/11/16 02:06:12;;;;;;;0.10;0.10;;;;;;;;;;5092035;28;20032;-73
2022/11/16 02:11:44;;;;;;;0.13;0.13;;;;;;;;;;5091822;28;20071;-74
2022/11/16 02:14:22;;;;;;;0.10;0.10;;;;;;;;;;5092066;28;20036;-73
2022/11/16 02:16:59;;;;;;;0.20;0.20;;;;;;;;;;5091890;28;20063;-74
2022/11/16 02:19:50;;;;;;;0.10;0.10;;;;;;;;;;5091993;28;20036;-73
2022/11/16 02:22:42;;;;;;;0.20;0.20;;;;;;;;;;5091605;28;20475;-73
2022/11/16 02:25:16;;;;;;;0.10;0.10;;;;;;;;;;5089177;28;20036;-73
2022/11/16 02:28:00;;;;;;;0.10;0.10;;;;;;;;;;5091693;28;20115;-73
2022/11/16 02:30:26;;;;;;;0.20;0.20;;;;;;;;;;5092880;28;20034;-73
2022/11/16 02:33:11;;;;;;;0.20;0.20;;;;;;;;;;5095328;28;20044;-73
2022/11/16 02:35:53;;;;;;;0.10;0.10;;;;;;;;;;5096366;28;20137;-75
2022/11/16 02:38:26;;;;;;;0.20;0.20;;;;;;;;;;5095513;28;20055;-75
2022/11/16 02:40:56;;;;;;;0.10;0.10;;;;;;;;;;5095515;28;20429;-76
2022/11/16 02:43:30;;;;;;;0.17;0.17;;;;;;;;;;5095660;28;20065;-76
2022/11/16 02:45:58;;;;;;;0.17;0.17;;;;;;;;;;5097299;28;20026;-76
2022/11/16 02:48:27;;;;;;;0.20;0.20;;;;;;;;;;5095352;28;20028;-75
2022/11/16 02:50:55;;;;;;;0.10;0.10;;;;;;;;;;5097816;28;20027;-74
2022/11/16 02:53:23;;;;;;;0.10;0.10;;;;;;;;;;5115640;28;20032;-75
2022/11/16 02:55:50;;;;;;;0.10;0.10;;;;;;;;;;5115506;28;20051;-73
2022/11/16 02:58:19;;;;;;;0.10;0.10;;;;;;;;;;5116929;28;20467;-74
2022/11/16 03:00:57;;;;;;;0.20;0.20;;;;;;;;;;5113919;28;20023;-77
2022/11/16 03:03:38;;;;;;;3.33;1.98;;;;;;;;;;5107595;28;20040;-77
2022/11/16 03:06:07;;;;;;;7.90;2.05;;;;;;;;;;5101659;28;20399;-79
2022/11/16 03:08:35;;;;;;;6.80;2.33;;;;;;;;;;5095196;28;20032;-79
2022/11/16 03:13:53;;;;;;;0.30;0.30;;;;;;;;;;5108006;28;20059;-78
2022/11/16 03:16:21;;;;;;;0.75;0.57;;;;;;;;;;5107256;28;20034;-74
2022/11/16 03:18:50;;;;;;;0.20;0.20;;;;;;;;;;5099219;28;20043;-75
2022/11/16 03:21:23;;;;;;;0.10;0.10;;;;;;;;;;5077880;28;20065;-73
2022/11/16 03:23:49;;;;;;;0.20;0.20;;;;;;;;;;5094794;28;20035;-73
2022/11/16 03:26:19;;;;;;;0.20;0.20;;;;;;;;;;5094977;28;20020;-73
2022/11/16 03:28:48;;;;;;;0.20;0.20;;;;;;;;;;5095881;28;20039;-73
2022/11/16 03:31:17;;;;;;;3.92;2.17;;;;;;;;;;5097459;28;20107;-73
2022/11/16 03:33:49;;;;;;;0.10;0.10;;;;;;;;;;5094601;28;20051;-73
2022/11/16 03:36:27;;;;;;;0.10;0.10;;;;;;;;;;5094552;28;20024;-74
2022/11/16 03:38:55;;;;;;;0.10;0.10;;;;;;;;;;5094511;28;20514;-75
2022/11/16 03:41:22;;;;;;;0.15;0.15;;;;;;;;;;5094822;28;20475;-72
2022/11/16 03:43:49;;;;;;;0.20;0.20;;;;;;;;;;5103592;28;20042;-75
2022/11/16 03:46:15;;;;;;;0.15;0.15;;;;;;;;;;5112440;28;20051;-74
2022/11/16 03:48:42;;;;;;;0.20;0.20;;;;;;;;;;5110190;28;20024;-74
2022/11/16 03:51:15;;;;;;;0.10;0.10;;;;;;;;;;5094604;28;20411;-73
2022/11/16 03:53:41;;;;;;;0.17;0.17;;;;;;;;;;5095436;28;20027;-74
2022/11/16 03:56:09;;;;;;;0.20;0.20;;;;;;;;;;5094198;28;20024;-74
2022/11/16 03:58:34;;;;;;;0.20;0.20;;;;;;;;;;5095382;28;20043;-73
2022/11/16 04:01:02;;;;;;;0.20;0.20;;;;;;;;;;5093802;28;20498;-74
2022/11/16 04:03:28;;;;;;;0.25;0.25;;;;;;;;;;5090032;28;20028;-76
2022/11/16 04:25:19;;;;;;;0.40;0.40;;;;;;;;;;5089910;28;20031;-75
2022/11/16 04:37:47;;;;;;;0.35;0.35;;;;;;;;;;5098203;28;20050;-73
2022/11/16 04:38:45;;;;;;;0.10;0.10;;;;;;;;;;5107734;28;20054;-75
2022/11/16 04:43:59;;;;;;;0.13;0.13;;;;;;;;;;5086293;28;20046;-76
2022/11/16 04:49:09;;;;;;;0.10;0.10;;;;;;;;;;5088500;28;20500;-75
2022/11/16 04:51:35;;;;;;;0.20;0.20;;;;;;;;;;5100797;28;20023;-75
2022/11/16 04:54:01;;;;;;;0.20;0.20;;;;;;;;;;5106082;28;20106;-76
2022/11/16 04:56:27;;;;;;;0.10;0.10;;;;;;;;;;5105872;28;20063;-76
2022/11/16 04:58:53;;;;;;;0.70;0.47;;;;;;;;;;5089516;28;20036;-75
2022/11/16 05:02:06;;;;;;;0.20;0.20;;;;;;;;;;5070108;28;20031;-76
2022/11/16 05:04:06;;;;;;;8.68;1.85;;;;;;;;;;5087826;28;20071;-76
2022/11/16 05:06:32;;;;;;;0.20;0.20;;;;;;;;;;5106046;28;20059;-76
2022/11/16 05:08:58;;;;;;;0.20;0.20;;;;;;;;;;5093649;28;20028;-76
2022/11/16 05:11:24;;;;;;;0.10;0.10;;;;;;;;;;5090448;28;20031;-76
2022/11/16 05:13:51;;;;;;;0.10;0.10;;;;;;;;;;5092048;28;20030;-76
2022/11/16 05:16:18;;;;;;;2.97;2.85;;;;;;;;;;5100881;28;20059;-75
2022/11/16 05:18:43;;;;;;;0.10;0.10;;;;;;;;;;5106657;28;20074;-75
2022/11/16 05:21:11;;;;;;;0.10;0.10;;;;;;;;;;5108695;28;20034;-74
2022/11/16 05:26:24;;;;;;;0.20;0.20;;;;;;;;;;5108209;28;20040;-75
2022/11/16 05:28:52;;;;;;;0.10;0.10;;;;;;;;;;5108377;28;20027;-77
2022/11/16 05:31:19;;;;;;;0.17;0.17;;;;;;;;;;5107209;28;20032;-76
2022/11/16 05:33:47;;;;;;;0.20;0.20;;;;;;;;;;5106622;28;20087;-76
2022/11/16 05:36:14;;;;;;;0.10;0.10;;;;;;;;;;5106768;28;20689;-75
2022/11/16 05:38:39;;;;;;;0.40;0.40;;;;;;;;;;5098035;28;20163;-78
2022/11/16 05:41:14;;;;;;;0.20;0.20;;;;;;;;;;5071769;28;20032;-74
2022/11/16 05:43:40;;;;;;;0.10;0.10;;;;;;;;;;5088444;28;20355;-75
2022/11/16 05:46:14;;;;;;;0.10;0.10;;;;;;;;;;5088784;28;20067;-76
2022/11/16 05:48:40;;;;;;;0.10;0.10;;;;;;;;;;5087796;28;20468;-75
2022/11/16 05:51:06;;;;;;;0.10;0.10;;;;;;;;;;5088358;28;20032;-76
2022/11/16 05:53:33;;;;;;;0.10;0.10;;;;;;;;;;5088258;28;20035;-78
2022/11/16 05:56:00;;;;;;;0.10;0.10;;;;;;;;;;5088602;28;20601;-76
2022/11/16 05:58:27;;;;;;;1.55;1.45;;;;;;;;;;5088700;28;20502;-74
2022/11/16 06:00:53;;;;;;;0.13;0.13;;;;;;;;;;5088173;28;20036;-74
2022/11/16 06:03:19;;;;;;;0.10;0.10;;;;;;;;;;5090042;28;20115;-74
2022/11/16 06:05:45;;;;;;;0.17;0.17;;;;;;;;;;5100534;28;20412;-75
2022/11/16 06:08:13;;;;;;;0.55;0.55;;;;;;;;;;5079721;28;20419;-74
2022/11/16 06:10:40;;;;;;;0.10;0.10;;;;;;;;;;5099968;28;20110;-74
2022/11/16 06:13:07;;;;;;;2.35;1.33;;;;;;;;;;5100775;28;20534;-77
2022/11/16 06:15:35;;;;;;;0.32;0.32;;;;;;;;;;5097893;28;20046;-75
2022/11/16 06:18:01;;;;;;;0.25;0.25;;;;;;;;;;5092161;28;20038;-74
2022/11/16 06:20:27;;;;;;;0.10;0.10;;;;;;;;;;5076388;28;20023;-76
2022/11/16 06:22:53;;;;;;;0.10;0.10;;;;;;;;;;5103376;28;20587;-77
2022/11/16 06:25:19;;;;;;;0.20;0.20;;;;;;;;;;5104599;28;20027;-75
2022/11/16 06:27:45;;;;;;;0.10;0.10;;;;;;;;;;5104607;28;20047;-77
2022/11/16 06:30:15;;;;;;;0.20;0.20;;;;;;;;;;5092753;28;20035;-74
2022/11/16 06:32:40;;;;;;;0.10;0.10;;;;;;;;;;5095005;28;20555;-75
2022/11/16 06:35:08;;;;;;;0.10;0.10;;;;;;;;;;5082197;28;20038;-75
2022/11/16 06:37:33;;;;;;;0.10;0.10;;;;;;;;;;5097571;28;20036;-75
2022/11/16 06:39:59;;;;;;;0.13;0.13;;;;;;;;;;5101781;28;20028;-76
2022/11/16 06:42:26;;;;;;;0.10;0.10;;;;;;;;;;5107206;28;20111;-76
2022/11/16 06:44:53;;;;;;;0.20;0.20;;;;;;;;;;5109944;28;20038;-76
2022/11/16 06:47:24;;;;;;;0.17;0.17;;;;;;;;;;5110295;28;20043;-76
2022/11/16 06:49:50;;;;;;;0.10;0.10;;;;;;;;;;5109740;28;20626;-76
2022/11/16 06:52:20;;;;;;;0.10;0.10;;;;;;;;;;5111664;28;20067;-76
2022/11/16 06:54:46;;;;;;;0.10;0.10;;;;;;;;;;5111125;28;20416;-76
2022/11/16 06:57:12;;;;;;;0.20;0.20;;;;;;;;;;5110905;28;20074;-75
2022/11/16 06:59:37;;;;;;;0.20;0.20;;;;;;;;;;5112184;28;20042;-76
2022/11/16 07:02:03;;;;;;;0.15;0.15;;;;;;;;;;5111818;28;20053;-75
2022/11/16 07:04:32;;;;;;;0.35;0.35;;;;;;;;;;5111646;28;20401;-75
2022/11/16 07:06:58;;;;;;;1.67;1.58;;;;;;;;;;5111666;28;20031;-75
2022/11/16 07:09:24;;;;;;;0.10;0.10;;;;;;;;;;5111673;28;20027;-75
2022/11/16 07:11:51;;;;;;;0.10;0.10;;;;;;;;;;5110282;28;20031;-75
2022/11/16 07:14:18;;;;;;;2.03;1.85;;;;;;;;;;5105005;28;20028;-76
2022/11/16 07:16:44;;;;;;;0.20;0.20;;;;;;;;;;5092509;28;20031;-76
2022/11/16 07:19:10;;;;;;;0.10;0.10;;;;;;;;;;5091293;28;20032;-75
2022/11/16 07:21:38;;;;;;;0.20;0.20;;;;;;;;;;5090915;28;20020;-76
2022/11/16 07:24:09;;;;;;;0.10;0.10;;;;;;;;;;5091075;28;20020;-76
2022/11/16 07:26:35;;;;;;;0.15;0.15;;;;;;;;;;5092044;28;20024;-74
2022/11/16 07:29:07;;;;;;;0.10;0.10;;;;;;;;;;5091211;28;20038;-75
2022/11/16 07:31:36;;;;;;;0.20;0.20;;;;;;;;;;5090853;28;20028;-76
2022/11/16 07:34:31;;;;;;;5.05;4.75;;;;;;;;;;5091298;28;20520;-74
2022/11/16 07:37:16;;;;;;;0.10;0.10;;;;;;;;;;5090776;28;20399;-74
2022/11/16 07:39:44;;;;;;;0.30;0.30;;;;;;;;;;5090631;28;20039;-75
2022/11/16 07:42:11;;;;;;;0.35;0.35;;;;;;;;;;5090447;28;20120;-74
2022/11/16 07:44:55;;;;;;;0.20;0.20;;;;;;;;;;5091639;28;20047;-74
2022/11/16 07:47:21;;;;;;;0.10;0.10;;;;;;;;;;5090559;28;20068;-75
2022/11/16 07:49:47;;;;;;;0.20;0.20;;;;;;;;;;5092866;28;20032;-76
2022/11/16 07:52:17;;;;;;;0.10;0.10;;;;;;;;;;5098349;28;20016;-76
2022/11/16 07:54:52;;;;;;;0.45;0.45;;;;;;;;;;5098679;28;20356;-75
2022/11/16 07:57:20;;;;;;;1.75;1.65;;;;;;;;;;5100067;28;20036;-70
2022/11/16 07:59:47;;;;;;;0.10;0.10;;;;;;;;;;5110563;28;20076;-70
2022/11/16 08:02:13;;;;;;;0.15;0.15;;;;;;;;;;5109363;28;20011;-70
2022/11/16 08:04:40;;;;;;;0.17;0.17;;;;;;;;;;5103663;28;20447;-70
2022/11/16 08:07:07;;;;;;;0.17;0.17;;;;;;;;;;5089848;28;20444;-70
2022/11/16 08:09:39;;;;;;;0.20;0.20;;;;;;;;;;5097998;28;20547;-69
2022/11/16 08:12:07;;;;;;;0.30;0.30;;;;;;;;;;5096865;28;20031;-70
2022/11/16 08:14:33;;;;;;;0.20;0.20;;;;;;;;;;5093024;28;20024;-70
2022/11/16 08:17:02;;;;;;;0.10;0.10;;;;;;;;;;5090288;28;20040;-69
2022/11/16 08:19:29;;;;;;;0.20;0.20;;;;;;;;;;5089664;28;20042;-70
2022/11/16 08:21:55;;;;;;;0.20;0.20;;;;;;;;;;5097581;28;20127;-70
2022/11/16 08:24:25;;;;;;;0.30;0.30;;;;;;;;;;5089783;28;20036;-70
2022/11/16 08:26:51;;;;;;;0.10;0.10;;;;;;;;;;5101224;28;20468;-70
2022/11/16 08:29:16;;;;;;;0.20;0.20;;;;;;;;;;5090606;28;20051;-73
2022/11/16 08:31:47;;;;;;;0.20;0.20;;;;;;;;;;5091654;28;20024;-75
2022/11/16 08:34:17;;;;;;;0.47;0.40;;;;;;;;;;5090112;28;20051;-74
2022/11/16 08:36:48;;;;;;;0.38;0.30;;;;;;;;;;5107833;28;20019;-73
2022/11/16 08:39:16;;;;;;;0.10;0.10;;;;;;;;;;5108856;28;20070;-72
2022/11/16 08:41:43;;;;;;;0.20;0.20;;;;;;;;;;5107061;28;20047;-73
2022/11/16 08:44:10;;;;;;;0.20;0.20;;;;;;;;;;5106952;28;20038;-73
2022/11/16 08:46:38;;;;;;;0.13;0.13;;;;;;;;;;5107272;28;20024;-73
2022/11/16 08:49:24;;;;;;;1.05;1.05;;;;;;;;;;5109480;28;20032;-75
2022/11/16 08:51:51;;;;;;;0.57;0.57;;;;;;;;;;5121008;28;20055;-75
2022/11/16 08:54:18;;;;;;;0.20;0.20;;;;;;;;;;5122184;28;20078;-75
2022/11/16 08:56:44;;;;;;;0.20;0.20;;;;;;;;;;5121844;28;20087;-75
2022/11/16 08:59:11;;;;;;;0.20;0.20;;;;;;;;;;5108691;28;20035;-74
2022/11/16 09:01:43;;;;;;;0.30;0.30;;;;;;;;;;5107685;28;20046;-74
2022/11/16 09:04:09;;;;;;;0.20;0.20;;;;;;;;;;5108932;28;20398;-74
2022/11/16 09:06:35;;;;;;;0.17;0.17;;;;;;;;;;5108988;28;20024;-75
2022/11/16 09:09:01;;;;;;;0.10;0.10;;;;;;;;;;5109401;28;20108;-74
2022/11/16 09:11:28;;;;;;;0.40;0.40;;;;;;;;;;5110473;28;20539;-73
2022/11/16 09:13:54;;;;;;;0.20;0.20;;;;;;;;;;5110309;28;20379;-73
2022/11/16 09:16:20;;;;;;;0.20;0.20;;;;;;;;;;5110270;28;20019;-73
2022/11/16 09:18:47;;;;;;;0.10;0.10;;;;;;;;;;5110287;28;20074;-73
2022/11/16 09:21:31;;;;;;;0.40;0.40;;;;;;;;;;5110529;28;20111;-73
2022/11/16 09:23:57;;;;;;;0.20;0.20;;;;;;;;;;5109189;28;20027;-74
2022/11/16 09:26:24;;;;;;;0.17;0.17;;;;;;;;;;5110425;27;20019;-74
2022/11/16 09:28:57;;;;;;;0.20;0.20;;;;;;;;;;5109727;28;20252;-74
2022/11/16 09:31:23;;;;;;;0.40;0.40;;;;;;;;;;5110227;28;20031;-75
2022/11/16 09:33:49;;;;;;;0.10;0.10;;;;;;;;;;5109910;28;20046;-73
2022/11/16 09:36:15;;;;;;;0.20;0.20;;;;;;;;;;5110249;28;20497;-72
2022/11/16 09:38:42;;;;;;;0.30;0.30;;;;;;;;;;5109628;28;20035;-75
2022/11/16 09:41:14;;;;;;;0.20;0.20;;;;;;;;;;5109344;28;20366;-75
2022/11/16 09:43:46;;;;;;;0.10;0.10;;;;;;;;;;5109010;28;20032;-75
2022/11/16 09:46:18;;;;;;;0.60;0.60;;;;;;;;;;5091883;28;20036;-75
2022/11/16 09:48:44;;;;;;;0.43;0.43;;;;;;;;;;5093939;28;20030;-73
2022/11/16 09:51:12;;;;;;;0.57;0.40;;;;;;;;;;5104456;28;20035;-72
2022/11/16 09:53:38;;;;;;;0.20;0.20;;;;;;;;;;5096938;28;20011;-74
2022/11/16 09:56:10;;;;;;;0.13;0.13;;;;;;;;;;5095021;28;20038;-74
2022/11/16 09:58:54;;;;;;;0.20;0.20;;;;;;;;;;5101680;28;20127;-75
2022/11/16 10:01:20;;;;;;;1.77;0.77;;;;;;;;;;5109791;28;20053;-73
2022/11/16 10:03:49;;;;;;;0.20;0.20;;;;;;;;;;5102418;28;20065;-75
2022/11/16 10:06:34;;;;;;;0.20;0.20;;;;;;;;;;5088814;28;20020;-75
2022/11/16 10:09:00;;;;;;;0.20;0.20;;;;;;;;;;5088354;28;20114;-75
2022/11/16 10:11:42;;;;;;;0.20;0.20;;;;;;;;;;5089859;28;20103;-75
2022/11/16 10:14:11;;;;;;;0.20;0.20;;;;;;;;;;5089416;28;20055;-75
2022/11/16 10:16:57;;;;;;;0.30;0.30;;;;;;;;;;5088729;28;20480;-77
2022/11/16 10:19:46;;;;;;;0.28;0.28;;;;;;;;;;5089028;28;20123;-75
2022/11/16 10:22:24;;;;;;;0.20;0.20;;;;;;;;;;5087843;28;20032;-76
2022/11/16 10:25:01;;;;;;;2.83;2.65;;;;;;;;;;5087293;28;20027;-77
2022/11/16 10:27:33;;;;;;;0.50;0.50;;;;;;;;;;5088461;28;20036;-75
2022/11/16 10:30:08;;;;;;;0.20;0.20;;;;;;;;;;5088312;28;20107;-75
2022/11/16 10:32:46;;;;;;;1.02;0.85;;;;;;;;;;5088421;28;20032;-75
2022/11/16 10:35:17;;;;;;;0.20;0.20;;;;;;;;;;5087680;28;20095;-75
2022/11/16 10:37:45;;;;;;;0.20;0.20;;;;;;;;;;5086848;28;20043;-77
2022/11/16 10:40:14;;;;;;;0.30;0.30;;;;;;;;;;5085901;28;20036;-75
2022/11/16 10:42:40;;;;;;;0.32;0.32;;;;;;;;;;5098967;28;20051;-74
2022/11/16 10:45:09;;;;;;;0.47;0.47;;;;;;;;;;5105865;28;20047;-75
2022/11/16 10:47:35;;;;;;;;;;;;;;;;;;5095319;28;20061;-76
2022/11/16 10:50:05;;;;;;;0.20;0.20;;;;;;;;;;5096846;28;19908;-75
2022/11/16 10:52:31;;;;;;;0.68;0.68;;;;;;;;;;5111057;28;20031;-75
2022/11/16 10:54:57;;;;;;;0.20;0.20;;;;;;;;;;5113232;28;20034;-79
2022/11/16 10:57:25;;;;;;;0.13;0.13;;;;;;;;;;5113403;28;20035;-79
2022/11/16 10:59:57;;;;;;;0.75;0.55;;;;;;;;;;5112015;28;20036;-80
2022/11/16 11:02:23;;;;;;;0.20;0.20;;;;;;;;;;5103436;28;20023;-81
2022/11/16 11:04:58;;;;;;;1.05;0.90;;;;;;;;;;5096759;28;20081;-79
2022/11/16 11:07:38;;;;;;;0.20;0.20;;;;;;;;;;5092630;28;20048;-77
2022/11/16 11:10:05;;;;;;;0.20;0.20;;;;;;;;;;5096696;28;20495;-76
2022/11/16 11:12:37;;;;;;;0.20;0.20;;;;;;;;;;5110846;28;20024;-78
2022/11/16 11:15:25;;;;;;;0.40;0.40;;;;;;;;;;5112785;28;20374;-78
2022/11/16 11:18:09;;;;;;;0.93;0.80;;;;;;;;;;5105356;28;20078;-74
2022/11/16 11:20:35;;;;;;;2.85;2.60;;;;;;;;;;5092184;28;20372;-73
2022/11/16 11:23:20;;;;;;;0.38;0.38;;;;;;;;;;5093450;28;20016;-76
2022/11/16 11:25:52;;;;;;;0.30;0.30;;;;;;;;;;5091356;28;20036;-74
2022/11/16 11:28:32;;;;;;;0.35;0.35;;;;;;;;;;5092014;28;20468;-77
2022/11/16 11:30:58;;;;;;;1.02;0.50;;;;;;;;;;5096463;28;20393;-76
2022/11/16 11:33:34;;;;;;;0.20;0.20;;;;;;;;;;5101346;28;20035;-73
2022/11/16 11:36:19;;;;;;;0.57;0.57;;;;;;;;;;5100128;28;20077;-77
2022/11/16 11:39:14;;;;;;;0.30;0.30;;;;;;;;;;5097464;28;20403;-74
2022/11/16 11:41:44;;;;;;;0.38;0.38;;;;;;;;;;5084576;28;20079;-74
2022/11/16 11:44:17;;;;;;;0.40;0.40;;;;;;;;;;5091794;28;20036;-76
2022/11/16 11:47:01;;;;;;;0.65;0.65;;;;;;;;;;5098953;28;20509;-74
2022/11/16 11:49:31;;;;;;;0.20;0.20;;;;;;;;;;5100065;28;20042;-75
2022/11/16 11:52:17;;;;;;;0.70;0.70;;;;;;;;;;5112055;28;20024;-75
2022/11/16 11:54:47;;;;;;;0.20;0.20;;;;;;;;;;5104498;28;20118;-74
2022/11/16 11:57:21;;;;;;;0.70;0.52;;;;;;;;;;5111801;28;20413;-75
2022/11/16 11:59:47;;;;;;;0.10;0.10;;;;;;;;;;5112416;28;20027;-81
2022/11/16 12:02:32;;;;;;;3.47;1.15;;;;;;;;;;5110445;28;20055;-80
2022/11/16 12:05:01;;;;;;;0.98;0.82;;;;;;;;;;5096503;28;20254;-77
2022/11/16 12:07:30;;;;;;;1.05;0.35;;;;;;;;;;5098810;28;20028;-78
2022/11/16 12:10:02;;;;;;;1.75;0.50;;;;;;;;;;5091306;28;20024;-77
2022/11/16 12:12:44;;;;;;;4.25;2.05;;;;;;;;;;5091362;28;20076;-78
2022/11/16 12:15:22;;;;;;;0.52;0.40;;;;;;;;;;5090260;28;20107;-75
2022/11/16 12:18:07;;;;;;;2.40;1.17;;;;;;;;;;5091411;28;20040;-74
2022/11/16 12:20:36;;;;;;;0.50;0.45;;;;;;;;;;5097820;28;20031;-75
2022/11/16 12:23:11;;;;;;;2.90;2.70;;;;;;;;;;5090802;28;20032;-75
2022/11/16 12:25:40;;;;;;;15.93;1.95;;;;;;;;;;5091108;28;20796;-75
2022/11/16 12:28:05;;;;;;;0.20;0.20;;;;;;;;;;5090844;28;20034;-76
2022/11/16 12:30:33;;;;;;;0.75;0.50;;;;;;;;;;5095726;28;20011;-78
2022/11/16 12:32:58;;;;;;;0.20;0.20;;;;;;;;;;5099495;28;20047;-77
2022/11/16 12:35:41;;;;;;;0.55;0.55;;;;;;;;;;5089264;28;20395;-76
2022/11/16 12:38:10;;;;;;;0.55;0.55;;;;;;;;;;5088404;28;20087;-76
2022/11/16 12:40:35;;;;;;;0.25;0.25;;;;;;;;;;5093597;28;20073;-78
2022/11/16 12:43:13;;;;;;;0.20;0.20;;;;;;;;;;5094264;28;20390;-77
2022/11/16 12:45:47;;;;;;;0.25;0.25;;;;;;;;;;5094002;28;20016;-74
2022/11/16 12:48:36;;;;;;;3.90;0.95;;;;;;;;;;5094590;28;20024;-77
2022/11/16 12:51:20;;;;;;;0.30;0.30;;;;;;;;;;5084399;28;20040;-75
2022/11/16 12:53:55;;;;;;;5.07;0.75;;;;;;;;;;5087850;28;20484;-76
2022/11/16 12:56:39;;;;;;;1.27;1.17;;;;;;;;;;5095876;28;20029;-77
2022/11/16 12:59:08;;;;;;;0.65;0.40;;;;;;;;;;5091152;28;20047;-74
2022/11/16 13:01:40;;;;;;;2.63;1.92;;;;;;;;;;5099793;28;20386;-74
2022/11/16 13:04:17;;;;;;;0.60;0.60;;;;;;;;;;5087833;28;20028;-75
2022/11/16 13:06:43;;;;;;;6.32;0.43;;;;;;;;;;5087477;28;20111;-76
2022/11/16 13:09:09;;;;;;;2.30;1.77;;;;;;;;;;5087847;28;20028;-78
2022/11/16 13:11:53;;;;;;;4.43;0.73;;;;;;;;;;5088340;28;20463;-75
2022/11/16 13:14:32;;;;;;;1.25;1.15;;;;;;;;;;5087551;28;20548;-75
2022/11/16 13:17:00;;;;;;;4.65;1.45;;;;;;;;;;5087657;28;20139;-77
2022/11/16 13:19:25;;;;;;;1.20;0.98;;;;;;;;;;5092172;28;20027;-76
2022/11/16 13:22:06;;;;;;;3.70;1.35;;;;;;;;;;5094199;28;20020;-76
2022/11/16 13:24:50;;;;;;;0.75;0.47;;;;;;;;;;5099524;28;20479;-76
2022/11/16 13:27:16;;;;;;;0.30;0.30;;;;;;;;;;5106300;28;20537;-76
2022/11/16 13:29:49;;;;;;;0.63;0.60;;;;;;;;;;5096520;28;20047;-76
2022/11/16 13:32:34;;;;;;;0.20;0.20;;;;;;;;;;5094605;28;20088;-77
2022/11/16 13:35:03;;;;;;;1.02;0.50;;;;;;;;;;5095518;28;20039;-76
2022/11/16 13:37:37;;;;;;;8.05;4.40;;;;;;;;;;5089925;28;20024;-76
2022/11/16 13:40:04;;;;;;;0.57;0.30;;;;;;;;;;5097812;28;20073;-76
2022/11/16 13:42:34;;;;;;;0.52;0.52;;;;;;;;;;5092287;28;20028;-77
2022/11/16 13:45:16;;;;;;;3.30;1.25;;;;;;;;;;5090402;28;20544;-77
2022/11/16 13:47:50;;;;;;;0.20;0.20;;;;;;;;;;5091366;28;20684;-75
2022/11/16 13:50:17;;;;;;;0.55;0.50;;;;;;;;;;5097649;28;20137;-74
2022/11/16 13:52:47;;;;;;;0.20;0.20;;;;;;;;;;5097432;28;20031;-75
2022/11/16 13:55:15;;;;;;;1.77;0.38;;;;;;;;;;5092614;28;20531;-76
2022/11/16 13:57:48;;;;;;;2.78;0.63;;;;;;;;;;5093471;28;20035;-75
2022/11/16 14:00:22;;;;;;;5.40;1.05;;;;;;;;;;5095031;28;20028;-76
2022/11/16 14:02:48;;;;;;;0.20;0.20;;;;;;;;;;5090165;28;20111;-79
2022/11/16 14:05:15;;;;;;;2.63;0.95;;;;;;;;;;5090962;28;20230;-76
2022/11/16 14:07:43;;;;;;;1.17;0.73;;;;;;;;;;5088672;28;20040;-76
2022/11/16 14:10:10;;;;;;;0.38;0.32;;;;;;;;;;5089206;28;20522;-78
2022/11/16 14:12:50;;;;;;;0.85;0.63;;;;;;;;;;5089005;28;20017;-77
2022/11/16 14:15:26;;;;;;;0.20;0.20;;;;;;;;;;5089312;28;20032;-76
2022/11/16 14:17:52;;;;;;;0.73;0.55;;;;;;;;;;5089439;28;20040;-77
2022/11/16 14:20:36;;;;;;;0.30;0.30;;;;;;;;;;5087064;28;20027;-77
2022/11/16 14:23:23;;;;;;;0.20;0.20;;;;;;;;;;5086826;28;20063;-76
2022/11/16 14:25:55;;;;;;;1.83;0.40;;;;;;;;;;5088112;28;20107;-76
2022/11/16 14:28:27;;;;;;;1.42;0.85;;;;;;;;;;5091314;28;20020;-77
2022/11/16 14:31:06;;;;;;;0.20;0.20;;;;;;;;;;5091584;28;20378;-77
2022/11/16 14:33:33;;;;;;;0.30;0.30;;;;;;;;;;5091413;28;20066;-76
2022/11/16 14:36:02;;;;;;;0.50;0.50;;;;;;;;;;5091399;28;20028;-78
2022/11/16 14:38:43;;;;;;;0.20;0.20;;;;;;;;;;5091758;28;20071;-76
2022/11/16 14:41:18;;;;;;;0.20;0.20;;;;;;;;;;5093006;28;20390;-77
2022/11/16 14:43:46;;;;;;;0.10;0.10;;;;;;;;;;5092905;28;20486;-78
2022/11/16 14:46:29;;;;;;;0.47;0.47;;;;;;;;;;5092924;28;20024;-77
2022/11/16 14:48:56;;;;;;;1.27;1.00;;;;;;;;;;5092688;28;20024;-78
2022/11/16 14:51:26;;;;;;;0.30;0.30;;;;;;;;;;5093044;28;20024;-77
2022/11/16 14:53:53;;;;;;;5.88;2.42;;;;;;;;;;5092841;28;20024;-77
2022/11/16 14:56:19;;;;;;;0.15;0.15;;;;;;;;;;5090714;28;20036;-77
2022/11/16 14:58:52;;;;;;;2.88;1.45;;;;;;;;;;5099593;28;20040;-77
2022/11/16 15:01:19;;;;;;;0.20;0.20;;;;;;;;;;5090653;28;20047;-77
2022/11/16 15:03:48;;;;;;;6.30;1.52;;;;;;;;;;5092698;28;20032;-79
2022/11/16 15:06:14;;;;;;;0.20;0.20;;;;;;;;;;5095375;28;20384;-77
2022/11/16 15:08:44;;;;;;;2.72;1.10;;;;;;;;;;5111620;27;20028;-78
2022/11/16 15:11:19;;;;;;;31.60;1.33;;;;;;;;;;5112554;27;20036;-77
2022/11/16 15:13:46;;;;;;;0.43;0.30;;;;;;;;;;5112839;28;20064;-76
2022/11/16 15:16:16;;;;;;;0.88;0.45;;;;;;;;;;5113054;28;20034;-77
2022/11/16 15:18:54;;;;;;;0.77;0.50;;;;;;;;;;5112481;28;20036;-77
2022/11/16 15:21:21;;;;;;;0.20;0.20;;;;;;;;;;5111745;28;20070;-78
2022/11/16 15:23:47;;;;;;;4.22;0.95;;;;;;;;;;5099203;28;20027;-78
2022/11/16 15:26:17;;;;;;;0.63;0.30;;;;;;;;;;5117233;28;20035;-78
2022/11/16 15:28:43;;;;;;;0.20;0.20;;;;;;;;;;5119574;28;20147;-78
2022/11/16 15:31:13;;;;;;;1.08;0.30;;;;;;;;;;5112015;28;20039;-78
2022/11/16 15:33:44;;;;;;;0.10;0.10;;;;;;;;;;5110871;28;20480;-76
2022/11/16 15:36:28;;;;;;;0.40;0.40;;;;;;;;;;5111262;28;20392;-76
2022/11/16 15:38:55;;;;;;;0.52;0.52;;;;;;;;;;5111314;28;20043;-76
2022/11/16 15:41:22;;;;;;;0.20;0.20;;;;;;;;;;5112539;28;20020;-77
2022/11/16 15:43:53;;;;;;;0.20;0.20;;;;;;;;;;5112051;28;20027;-76
2022/11/16 15:46:20;;;;;;;0.20;0.20;;;;;;;;;;5112293;28;20023;-78